createdAt,value
2018-05-04T00:02:05.581Z,91.20
2018-05-04T00:04:32.502Z,91.10
2018-05-04T00:06:59.354Z,91.20
2018-05-04T00:09:26.279Z,91.40
2018-05-04T00:11:53.201Z,91.40
2018-05-04T00:14:20.069Z,91.50
2018-05-04T00:16:47.022Z,91.50
2018-05-04T00:19:13.945Z,91.60
2018-05-04T00:21:40.880Z,91.60
2018-05-04T00:24:07.745Z,91.70
2018-05-04T00:26:34.723Z,91.80
2018-05-04T00:29:01.594Z,92.00
2018-05-04T00:31:28.526Z,92.00
2018-05-04T00:33:55.450Z,92.10
2018-05-04T00:36:22.513Z,92.20
2018-05-04T00:38:49.383Z,92.30
2018-05-04T00:41:16.989Z,92.10
2018-05-04T00:43:43.908Z,92.30
2018-05-04T00:46:11.508Z,92.30
2018-05-04T00:48:38.365Z,92.30
2018-05-04T00:51:05.311Z,92.40
2018-05-04T00:53:32.269Z,92.40
2018-05-04T00:55:59.217Z,92.50
2018-05-04T00:58:26.137Z,92.40
2018-05-04T01:00:52.996Z,92.50
2018-05-04T01:03:19.915Z,92.60
2018-05-04T01:05:46.789Z,92.60
2018-05-04T01:08:13.728Z,92.70
2018-05-04T01:10:40.602Z,92.80
2018-05-04T01:13:07.459Z,93.00
2018-05-04T01:15:34.473Z,92.90
2018-05-04T01:18:01.374Z,92.90
2018-05-04T01:20:28.289Z,92.90
2018-05-04T01:22:55.944Z,93.00
2018-05-04T01:25:22.856Z,92.90
2018-05-04T01:27:49.733Z,93.00
2018-05-04T01:30:16.670Z,93.10
2018-05-04T01:32:43.525Z,93.20
2018-05-04T01:35:10.460Z,93.30
2018-05-04T01:37:37.373Z,93.40
2018-05-04T01:40:04.333Z,93.50
2018-05-04T01:42:31.186Z,93.50
2018-05-04T01:44:58.132Z,93.60
2018-05-04T01:47:25.072Z,93.60
2018-05-04T01:49:51.953Z,93.80
2018-05-04T01:52:19.577Z,94.00
2018-05-04T01:54:46.519Z,93.90
2018-05-04T01:57:13.382Z,93.90
2018-05-04T01:59:40.232Z,93.90
2018-05-04T02:02:07.205Z,94.00
2018-05-04T02:04:34.230Z,94.00
2018-05-04T02:07:01.183Z,94.10
2018-05-04T02:09:28.057Z,94.10
2018-05-04T02:11:54.987Z,94.10
2018-05-04T02:14:21.879Z,94.10
2018-05-04T02:16:48.743Z,94.20
2018-05-04T02:19:15.728Z,94.30
2018-05-04T02:21:42.649Z,94.30
2018-05-04T02:24:09.570Z,94.20
2018-05-04T02:26:36.424Z,94.40
2018-05-04T02:29:03.345Z,94.30
2018-05-04T02:31:30.264Z,94.30
2018-05-04T02:33:57.201Z,94.30
2018-05-04T02:36:24.057Z,94.40
2018-05-04T02:38:50.969Z,94.40
2018-05-04T02:41:17.845Z,94.40
2018-05-04T02:43:45.517Z,94.50
2018-05-04T02:46:12.389Z,94.40
2018-05-04T02:48:39.393Z,94.50
2018-05-04T02:51:06.240Z,94.50
2018-05-04T02:53:33.091Z,94.50
2018-05-04T02:56:00.019Z,94.60
2018-05-04T02:58:26.896Z,94.60
2018-05-04T03:00:53.755Z,94.60
2018-05-04T03:03:20.691Z,94.70
2018-05-04T03:05:47.625Z,94.60
2018-05-04T03:08:14.478Z,94.70
2018-05-04T03:10:41.400Z,94.80
2018-05-04T03:13:08.257Z,94.90
2018-05-04T03:15:35.198Z,94.90
2018-05-04T03:18:02.116Z,94.90
2018-05-04T03:20:29.121Z,94.90
2018-05-04T03:22:56.264Z,94.90
2018-05-04T03:25:23.141Z,95.00
2018-05-04T03:27:50.064Z,95.10
2018-05-04T03:30:16.936Z,95.10
2018-05-04T03:32:43.917Z,95.10
2018-05-04T03:35:10.786Z,95.10
2018-05-04T03:37:37.738Z,95.30
2018-05-04T03:40:04.636Z,95.20
2018-05-04T03:42:31.556Z,95.30
2018-05-04T03:44:58.423Z,95.30
2018-05-04T03:47:26.101Z,95.40
2018-05-04T03:49:53.782Z,95.40
2018-05-04T03:52:20.694Z,95.40
2018-05-04T03:54:47.554Z,95.50
2018-05-04T03:57:26.595Z,95.50
2018-05-04T04:00:05.594Z,95.70
2018-05-04T04:02:44.668Z,95.70
2018-05-04T04:05:11.609Z,95.80
2018-05-04T04:07:38.544Z,95.90
2018-05-04T04:10:05.473Z,95.80
2018-05-04T04:12:33.078Z,95.70
2018-05-04T04:15:00.035Z,95.70
2018-05-04T04:17:26.908Z,95.80
2018-05-04T04:19:53.842Z,95.70
2018-05-04T04:22:21.497Z,95.70
2018-05-04T04:24:48.407Z,95.70
2018-05-04T04:27:26.853Z,95.70
2018-05-04T04:29:54.775Z,95.70
2018-05-04T04:32:24.512Z,95.60
2018-05-04T04:34:51.406Z,95.60
2018-05-04T04:37:18.414Z,95.50
2018-05-04T04:39:57.614Z,95.50
2018-05-04T04:42:31.242Z,95.50
2018-05-04T04:45:00.557Z,95.50
2018-05-04T04:47:30.693Z,95.00
2018-05-04T04:49:58.137Z,93.80
2018-05-04T04:52:24.987Z,93.50
2018-05-04T04:54:51.937Z,92.60
2018-05-04T04:57:20.605Z,91.20
2018-05-04T04:59:51.255Z,89.70
2018-05-04T05:02:18.329Z,89.30
2018-05-04T05:04:47.707Z,90.20
2018-05-04T05:07:26.321Z,92.00
2018-05-04T05:09:58.708Z,92.00
2018-05-04T05:12:29.386Z,92.10
2018-05-04T05:15:04.197Z,91.30
2018-05-04T05:17:32.533Z,91.30
2018-05-04T05:20:10.410Z,90.90
2018-05-04T05:22:42.703Z,91.10
2018-05-04T05:25:09.629Z,91.00
2018-05-04T05:27:36.578Z,90.60
2018-05-04T05:30:03.441Z,90.40
2018-05-04T05:32:31.403Z,89.50
2018-05-04T05:34:58.430Z,90.20
2018-05-04T05:37:25.306Z,90.70
2018-05-04T05:39:52.449Z,91.20
2018-05-04T05:42:31.522Z,91.50
2018-05-04T05:44:58.976Z,91.90
2018-05-04T05:47:25.896Z,92.40
2018-05-04T05:50:01.328Z,92.20
2018-05-04T05:52:28.191Z,92.10
2018-05-04T05:54:56.705Z,92.40
2018-05-04T05:57:24.907Z,92.40
2018-05-04T05:59:53.673Z,92.50
2018-05-04T06:02:20.619Z,92.50
2018-05-04T06:04:47.607Z,92.40
2018-05-04T06:07:14.469Z,92.70
2018-05-04T06:09:41.387Z,92.40
2018-05-04T06:12:16.651Z,92.10
2018-05-04T06:14:44.493Z,91.90
2018-05-04T06:17:14.359Z,92.40
2018-05-04T06:19:41.233Z,92.40
2018-05-04T06:22:08.963Z,92.50
2018-05-04T06:24:35.897Z,92.50
2018-05-04T06:27:02.801Z,92.60
2018-05-04T06:29:30.404Z,92.30
2018-05-04T06:31:57.336Z,92.30
2018-05-04T06:34:24.202Z,92.10
2018-05-04T06:36:51.075Z,91.70
2018-05-04T06:39:17.990Z,91.80
2018-05-04T06:41:44.850Z,91.80
2018-05-04T06:44:11.764Z,91.40
2018-05-04T06:46:38.637Z,90.90
2018-05-04T06:49:05.488Z,91.10
2018-05-04T06:51:32.809Z,91.00
2018-05-04T06:53:59.666Z,91.10
2018-05-04T06:56:26.525Z,91.30
2018-05-04T06:58:53.436Z,91.60
2018-05-04T07:01:20.470Z,91.50
2018-05-04T07:03:49.493Z,91.00
2018-05-04T07:06:16.349Z,91.20
2018-05-04T07:08:43.259Z,91.30
2018-05-04T07:11:10.125Z,91.20
2018-05-04T07:13:37.043Z,91.30
2018-05-04T07:16:03.993Z,91.20
2018-05-04T07:18:30.908Z,91.20
2018-05-04T07:20:57.817Z,91.60
2018-05-04T07:23:24.676Z,91.50
2018-05-04T07:25:51.584Z,91.90
2018-05-04T07:28:18.433Z,91.50
2018-05-04T07:30:45.442Z,91.70
2018-05-04T07:33:12.307Z,91.90
2018-05-04T07:35:39.186Z,91.60
2018-05-04T07:38:06.984Z,92.00
2018-05-04T07:40:33.878Z,91.90
2018-05-04T07:43:00.749Z,91.40
2018-05-04T07:45:27.699Z,90.70
2018-05-04T07:47:54.621Z,90.70
2018-05-04T07:50:21.499Z,90.40
2018-05-04T07:52:48.438Z,89.60
2018-05-04T07:55:15.378Z,90.10
2018-05-04T07:57:42.307Z,90.10
2018-05-04T08:00:09.153Z,88.50
2018-05-04T08:02:36.002Z,88.40
2018-05-04T08:05:03.035Z,89.10
2018-05-04T08:07:29.894Z,88.60
2018-05-04T08:09:56.833Z,86.20
2018-05-04T08:12:23.704Z,88.30
2018-05-04T08:14:50.717Z,88.50
2018-05-04T08:17:17.565Z,88.80
2018-05-04T08:19:44.469Z,88.50
2018-05-04T08:22:11.313Z,88.30
2018-05-04T08:24:38.998Z,88.50
2018-05-04T08:27:12.235Z,88.60
2018-05-04T08:29:39.658Z,89.30
2018-05-04T08:32:07.260Z,90.00
2018-05-04T08:34:34.377Z,89.50
2018-05-04T08:37:01.301Z,89.20
2018-05-04T08:39:28.960Z,86.60
2018-05-04T08:41:59.800Z,85.80
2018-05-04T08:44:26.844Z,85.80
2018-05-04T08:46:55.190Z,86.10
2018-05-04T08:49:23.400Z,86.10
2018-05-04T08:51:51.061Z,79.70
2018-05-04T08:54:18.724Z,77.80
2018-05-04T08:56:45.637Z,77.60
2018-05-04T08:59:12.486Z,78.90
2018-05-04T09:01:39.414Z,80.30
2018-05-04T09:04:06.337Z,80.90
2018-05-04T09:06:33.985Z,81.70
2018-05-04T09:09:00.911Z,81.60
2018-05-04T09:11:28.518Z,82.20
2018-05-04T09:13:55.497Z,82.10
2018-05-04T09:16:22.422Z,82.00
2018-05-04T09:18:49.441Z,83.30
2018-05-04T09:21:17.257Z,84.80
2018-05-04T09:23:45.782Z,84.90
2018-05-04T09:26:13.574Z,84.70
2018-05-04T09:28:40.435Z,84.60
2018-05-04T09:31:07.382Z,84.10
2018-05-04T09:33:35.229Z,84.40
2018-05-04T09:36:02.189Z,84.70
2018-05-04T09:38:29.118Z,83.50
2018-05-04T09:40:55.981Z,84.70
2018-05-04T09:43:23.879Z,82.60
2018-05-04T09:45:50.750Z,82.50
2018-05-04T09:48:18.441Z,82.30
2018-05-04T09:50:45.296Z,82.20
2018-05-04T09:53:14.384Z,82.10
2018-05-04T09:55:41.309Z,84.30
2018-05-04T09:58:08.193Z,83.60
2018-05-04T10:00:35.461Z,81.70
2018-05-04T10:03:03.190Z,79.80
2018-05-04T10:05:30.108Z,79.80
2018-05-04T10:07:57.713Z,79.40
2018-05-04T10:10:24.628Z,79.30
2018-05-04T10:12:51.500Z,79.50
2018-05-04T10:15:18.420Z,79.00
2018-05-04T10:17:45.355Z,78.40
2018-05-04T10:20:12.970Z,79.30
2018-05-04T10:22:39.907Z,79.30
2018-05-04T10:25:06.784Z,80.60
2018-05-04T10:27:33.705Z,80.40
2018-05-04T10:30:00.578Z,77.60
2018-05-04T10:32:27.513Z,77.10
2018-05-04T10:34:54.434Z,78.30
2018-05-04T10:37:21.288Z,79.20
2018-05-04T10:39:48.241Z,78.00
2018-05-04T10:42:15.187Z,76.80
2018-05-04T10:44:42.217Z,76.80
2018-05-04T10:47:09.120Z,74.20
2018-05-04T10:49:36.782Z,76.90
2018-05-04T10:52:04.447Z,77.20
2018-05-04T10:54:32.077Z,76.40
2018-05-04T10:56:59.365Z,76.40
2018-05-04T10:59:26.250Z,78.40
2018-05-04T11:01:53.213Z,75.70
2018-05-04T11:04:20.074Z,75.40
2018-05-04T11:06:47.141Z,76.00
2018-05-04T11:09:14.929Z,76.30
2018-05-04T11:11:41.860Z,76.50
2018-05-04T11:14:09.769Z,76.20
2018-05-04T11:16:36.647Z,76.20
2018-05-04T11:19:11.099Z,75.00
2018-05-04T11:21:39.597Z,73.30
2018-05-04T11:24:06.520Z,74.60
2018-05-04T11:26:34.134Z,73.80
2018-05-04T11:29:01.092Z,73.90
2018-05-04T11:31:27.968Z,74.70
2018-05-04T11:33:55.616Z,74.70
2018-05-04T11:36:22.563Z,74.20
2018-05-04T11:38:49.450Z,74.10
2018-05-04T11:41:22.318Z,74.70
2018-05-04T11:43:49.925Z,74.60
2018-05-04T11:46:16.859Z,73.70
2018-05-04T11:48:43.732Z,74.50
2018-05-04T11:51:10.632Z,73.70
2018-05-04T11:53:37.633Z,74.40
2018-05-04T11:56:04.562Z,73.60
2018-05-04T11:58:31.730Z,71.80
2018-05-04T12:00:58.601Z,72.20
2018-05-04T12:03:26.473Z,73.10
2018-05-04T12:05:55.270Z,73.10
2018-05-04T12:08:22.213Z,72.70
2018-05-04T12:10:49.148Z,72.70
2018-05-04T12:13:17.032Z,71.60
2018-05-04T12:15:46.106Z,71.70
2018-05-04T12:18:13.785Z,71.10
2018-05-04T12:20:40.886Z,71.00
2018-05-04T12:23:07.822Z,69.90
2018-05-04T12:25:36.528Z,70.80
2018-05-04T12:28:03.583Z,71.20
2018-05-04T12:30:30.517Z,70.40
2018-05-04T12:33:01.127Z,71.40
2018-05-04T12:35:28.967Z,68.80
2018-05-04T12:37:55.905Z,70.20
2018-05-04T12:40:23.557Z,71.40
2018-05-04T12:42:51.220Z,70.80
2018-05-04T12:45:18.887Z,69.60
2018-05-04T12:47:51.424Z,69.60
2018-05-04T12:50:18.421Z,69.50
2018-05-04T12:52:46.375Z,69.90
2018-05-04T12:55:13.386Z,68.40
2018-05-04T12:57:40.254Z,68.20
2018-05-04T13:00:07.278Z,68.90
2018-05-04T13:02:34.140Z,69.00
2018-05-04T13:05:01.138Z,70.40
2018-05-04T13:07:28.095Z,66.20
2018-05-04T13:09:54.970Z,70.40
2018-05-04T13:12:21.830Z,68.40
2018-05-04T13:14:48.742Z,68.60
2018-05-04T13:17:15.677Z,67.80
2018-05-04T13:19:42.673Z,67.90
2018-05-04T13:22:09.705Z,67.30
2018-05-04T13:24:36.614Z,67.30
2018-05-04T13:27:07.552Z,69.00
2018-05-04T13:29:37.534Z,66.20
2018-05-04T13:32:12.222Z,67.40
2018-05-04T13:34:48.059Z,67.20
2018-05-04T13:37:21.272Z,67.30
2018-05-04T13:40:01.839Z,66.00
2018-05-04T13:42:28.856Z,66.00
2018-05-04T13:45:05.203Z,65.20
2018-05-04T13:47:32.574Z,67.30
2018-05-04T13:52:41.801Z,67.00
2018-05-04T13:55:19.176Z,66.80
2018-05-04T13:57:46.616Z,66.70
2018-05-04T14:00:13.548Z,66.80
2018-05-04T14:02:46.638Z,65.60
2018-05-04T14:05:25.162Z,65.00
2018-05-04T14:08:01.005Z,65.20
2018-05-04T14:10:34.096Z,64.80
2018-05-04T14:13:06.404Z,65.20
2018-05-04T14:15:34.094Z,64.80
2018-05-04T14:18:01.396Z,64.80
2018-05-04T14:20:28.952Z,65.50
2018-05-04T14:22:56.557Z,65.00
2018-05-04T14:28:06.940Z,66.00
2018-05-04T14:30:33.862Z,63.30
2018-05-04T14:33:02.339Z,63.10
2018-05-04T14:35:30.360Z,65.00
2018-05-04T14:37:59.808Z,64.70
2018-05-04T14:40:33.385Z,64.30
2018-05-04T14:43:00.311Z,64.50
2018-05-04T14:45:27.971Z,64.50
2018-05-04T14:47:55.906Z,64.60
2018-05-04T14:50:28.445Z,63.20
2018-05-04T14:52:57.717Z,63.90
2018-05-04T14:55:24.678Z,63.60
2018-05-04T14:57:52.297Z,63.40
2018-05-04T15:00:20.001Z,64.30
2018-05-04T15:02:47.011Z,64.20
2018-05-04T15:05:14.300Z,63.50
2018-05-04T15:07:42.292Z,63.80
2018-05-04T15:10:10.803Z,62.40
2018-05-04T15:12:39.253Z,62.40
2018-05-04T15:15:06.264Z,63.60
2018-05-04T15:17:33.256Z,63.50
2018-05-04T15:20:00.193Z,63.00
2018-05-04T15:22:27.049Z,62.20
2018-05-04T15:24:54.047Z,62.40
2018-05-04T15:27:22.223Z,63.30
2018-05-04T15:29:51.405Z,63.30
2018-05-04T15:32:18.275Z,63.80
2018-05-04T15:34:50.875Z,62.30
2018-05-04T15:37:19.266Z,64.00
2018-05-04T15:39:46.211Z,63.90
2018-05-04T15:42:13.073Z,63.50
2018-05-04T15:44:39.997Z,62.00
2018-05-04T15:47:06.874Z,62.70
2018-05-04T15:49:33.718Z,62.20
2018-05-04T15:52:05.483Z,62.90
2018-05-04T15:54:32.337Z,63.30
2018-05-04T15:57:00.359Z,63.70
2018-05-04T15:59:27.795Z,63.20
2018-05-04T16:01:54.834Z,64.00
2018-05-04T16:04:22.789Z,62.70
2018-05-04T16:06:50.498Z,63.70
2018-05-04T16:09:20.313Z,63.80
2018-05-04T16:11:49.688Z,62.60
2018-05-04T16:14:19.461Z,64.30
2018-05-04T16:16:48.945Z,64.60
2018-05-04T16:19:19.227Z,64.50
2018-05-04T16:21:56.634Z,63.80
2018-05-04T16:24:35.890Z,63.30
2018-05-04T16:27:09.755Z,63.20
2018-05-04T16:29:42.702Z,63.50
2018-05-04T16:32:10.845Z,63.80
2018-05-04T16:34:47.292Z,63.80
2018-05-04T16:37:27.752Z,63.50
2018-05-04T16:39:58.441Z,63.60
2018-05-04T16:42:32.014Z,63.80
2018-05-04T16:45:00.093Z,64.90
2018-05-04T16:47:30.151Z,64.80
2018-05-04T16:49:57.509Z,64.40
2018-05-04T16:52:32.750Z,63.90
2018-05-04T16:55:12.859Z,64.50
2018-05-04T16:57:51.804Z,64.70
2018-05-04T17:00:19.714Z,65.80
2018-05-04T17:02:46.632Z,65.80
2018-05-04T17:05:19.062Z,65.40
2018-05-04T17:07:46.508Z,65.90
2018-05-04T17:10:14.106Z,65.20
2018-05-04T17:12:45.522Z,65.20
2018-05-04T17:15:12.518Z,64.90
2018-05-04T17:17:39.441Z,64.90
2018-05-04T17:20:06.361Z,65.80
2018-05-04T17:22:33.320Z,65.70
2018-05-04T17:25:00.246Z,64.60
2018-05-04T17:27:27.905Z,65.80
2018-05-04T17:29:54.895Z,65.70
2018-05-04T17:32:21.880Z,65.50
2018-05-04T17:34:48.763Z,66.90
2018-05-04T17:37:15.733Z,66.10
2018-05-04T17:39:42.661Z,66.90
2018-05-04T17:42:09.520Z,66.40
2018-05-04T17:44:36.458Z,67.10
2018-05-04T17:47:03.497Z,67.70
2018-05-04T17:49:32.889Z,67.40
2018-05-04T17:52:03.088Z,69.00
2018-05-04T17:54:32.433Z,69.00
2018-05-04T17:57:02.035Z,69.10
2018-05-04T17:59:31.443Z,69.70
2018-05-04T18:02:02.945Z,69.70
2018-05-04T18:04:32.769Z,70.30
2018-05-04T18:07:01.634Z,70.60
2018-05-04T18:09:28.521Z,70.60
2018-05-04T18:11:58.710Z,71.50
2018-05-04T18:14:27.686Z,71.60
2018-05-04T18:16:57.371Z,71.90
2018-05-04T18:19:24.288Z,72.00
2018-05-04T18:21:54.296Z,72.50
2018-05-04T18:24:23.582Z,72.90
2018-05-04T18:26:52.724Z,72.90
2018-05-04T18:29:19.585Z,73.10
2018-05-04T18:31:48.799Z,73.80
2018-05-04T18:34:18.160Z,73.70
2018-05-04T18:36:48.230Z,74.60
2018-05-04T18:39:17.713Z,74.60
2018-05-04T18:41:47.137Z,74.80
2018-05-04T18:44:16.921Z,75.20
2018-05-04T18:46:46.934Z,76.30
2018-05-04T18:49:15.974Z,75.70
2018-05-04T18:51:46.158Z,76.00
2018-05-04T18:54:15.749Z,76.30
2018-05-04T18:56:45.714Z,76.30
2018-05-04T18:59:16.125Z,76.30
2018-05-04T19:01:43.065Z,76.60
2018-05-04T19:04:09.985Z,76.50
2018-05-04T19:06:39.115Z,76.70
2018-05-04T19:09:05.982Z,76.80
2018-05-04T19:11:32.937Z,77.20
2018-05-04T19:13:59.869Z,77.40
2018-05-04T19:16:26.720Z,77.20
2018-05-04T19:18:53.641Z,77.50
2018-05-04T19:21:20.545Z,77.90
2018-05-04T19:23:47.518Z,77.90
2018-05-04T19:26:14.530Z,78.40
2018-05-04T19:28:41.454Z,77.90
2018-05-04T19:31:08.329Z,78.20
2018-05-04T19:33:35.254Z,78.00
2018-05-04T19:36:02.117Z,78.70
2018-05-04T19:38:31.348Z,79.50
2018-05-04T19:41:00.129Z,78.60
2018-05-04T19:43:29.686Z,79.20
2018-05-04T19:45:59.743Z,78.90
2018-05-04T19:48:26.693Z,78.80
2018-05-04T19:50:56.426Z,78.80
2018-05-04T19:53:23.837Z,78.90
2018-05-04T19:55:53.838Z,79.60
2018-05-04T19:58:20.789Z,79.60
2018-05-04T20:00:47.748Z,79.50
2018-05-04T20:03:14.704Z,79.90
2018-05-04T20:05:41.589Z,79.70
2018-05-04T20:08:08.565Z,79.90
2018-05-04T20:10:35.461Z,80.20
2018-05-04T20:13:03.185Z,80.30
2018-05-04T20:15:30.117Z,80.30
2018-05-04T20:17:56.969Z,80.50
2018-05-04T20:20:23.912Z,80.60
2018-05-04T20:22:50.764Z,80.80
2018-05-04T20:25:17.680Z,80.70
2018-05-04T20:27:44.597Z,81.10
2018-05-04T20:30:11.530Z,81.00
2018-05-04T20:32:39.161Z,81.40
2018-05-04T20:35:06.026Z,81.40
2018-05-04T20:37:33.370Z,81.40
2018-05-04T20:40:00.413Z,81.50
2018-05-04T20:42:30.471Z,81.70
2018-05-04T20:44:57.565Z,81.70
2018-05-04T20:47:24.485Z,82.10
2018-05-04T20:49:51.643Z,82.20
2018-05-04T20:52:18.568Z,82.30
2018-05-04T20:54:45.743Z,82.20
2018-05-04T20:57:12.601Z,82.40
2018-05-04T20:59:39.530Z,82.30
2018-05-04T21:02:06.776Z,82.70
2018-05-04T21:04:33.708Z,82.80
2018-05-04T21:07:00.626Z,82.70
2018-05-04T21:09:27.682Z,82.70
2018-05-04T21:11:55.285Z,83.30
2018-05-04T21:14:22.202Z,83.30
2018-05-04T21:16:49.821Z,83.00
2018-05-04T21:19:16.817Z,83.00
2018-05-04T21:21:43.685Z,83.40
2018-05-04T21:24:10.554Z,83.80
2018-05-04T21:26:39.393Z,84.20
2018-05-04T21:29:06.562Z,83.80
2018-05-04T21:31:33.544Z,84.00
2018-05-04T21:34:00.402Z,84.00
2018-05-04T21:36:27.366Z,84.10
2018-05-04T21:38:55.117Z,83.80
2018-05-04T21:41:22.046Z,83.80
2018-05-04T21:43:48.901Z,84.00
2018-05-04T21:46:15.757Z,83.90
2018-05-04T21:48:42.694Z,84.40
2018-05-04T21:51:09.620Z,85.00
2018-05-04T21:53:36.477Z,84.60
2018-05-04T21:56:03.517Z,84.90
2018-05-04T21:58:30.445Z,84.90
2018-05-04T22:00:57.315Z,85.10
2018-05-04T22:03:24.168Z,85.40
2018-05-04T22:05:53.398Z,85.40
2018-05-04T22:08:20.996Z,85.70
2018-05-04T22:10:47.941Z,85.60
2018-05-04T22:13:16.768Z,85.90
2018-05-04T22:15:55.387Z,86.00
2018-05-04T22:18:26.067Z,86.10
2018-05-04T22:20:53.295Z,86.70
2018-05-04T22:23:20.964Z,86.60
2018-05-04T22:25:48.024Z,86.80
2018-05-04T22:28:14.954Z,87.10
2018-05-04T22:30:41.965Z,87.20
2018-05-04T22:33:08.903Z,87.30
2018-05-04T22:35:35.757Z,87.80
2018-05-04T22:38:02.669Z,88.10
2018-05-04T22:40:29.687Z,88.20
2018-05-04T22:42:56.610Z,88.20
2018-05-04T22:45:23.596Z,88.60
2018-05-04T22:47:50.470Z,88.70
2018-05-04T22:50:17.427Z,88.80
2018-05-04T22:52:44.366Z,88.70
2018-05-04T22:55:11.224Z,88.80
2018-05-04T22:57:38.087Z,89.00
2018-05-04T23:00:05.128Z,89.10
2018-05-04T23:02:31.997Z,89.00
2018-05-04T23:04:58.922Z,89.50
2018-05-04T23:07:25.799Z,89.20
2018-05-04T23:09:52.789Z,89.40
2018-05-04T23:12:19.637Z,89.70
2018-05-04T23:14:46.493Z,89.70
2018-05-04T23:17:13.421Z,90.00
2018-05-04T23:19:40.369Z,90.30
2018-05-04T23:22:07.221Z,90.60
2018-05-04T23:24:34.062Z,90.00
2018-05-04T23:27:00.977Z,90.20
2018-05-04T23:29:27.938Z,90.10
2018-05-04T23:31:54.860Z,90.30
2018-05-04T23:34:21.832Z,90.40
2018-05-04T23:36:48.742Z,90.40
2018-05-04T23:39:16.406Z,90.40
2018-05-04T23:41:43.329Z,90.40
2018-05-04T23:44:10.169Z,90.70
2018-05-04T23:46:37.157Z,90.80
2018-05-04T23:49:04.062Z,90.60
2018-05-04T23:51:31.005Z,91.00
2018-05-04T23:53:57.856Z,90.80
2018-05-04T23:56:24.777Z,90.70
2018-05-04T23:58:51.772Z,90.70
